Flight Track Log - Related Links

Times and Time Zones

All times are in EDT time to prevent confusion due to time zone crossing. See the JA-738J flight status page for this flight to view local times or setup timezone preferences in your user account.

Time Position Orientation Groundspeed Altitude Reporting Facility
EDT Latitude Longitude Course Direction KTS MPH feet Rate Location/Type
Sat 04:56:00 AM 35.7834 140.9404 90° East  Level FlightAware Approximate
Sat 04:57:00 AM 35.7855 141.1276 84° East  Level FlightAware Approximate
Sat 04:57:20 AM 35.5880 139.9010 84° East 253 291 9,400  Level FlightAware ADS-B
Sat 04:57:45 AM 35.5670 139.9230 140° Southeast 253 291 9,400 1,572 Level FlightAware ADS-B
Sat 04:59:45 AM 35.5390 143.2080 56° Northeast 362 417 13,200 1,341 Climbing FlightAware ADS-B
Sat 05:00:00 AM 35.7586 140.2715 56° Northeast  Level Estimated
Sat 05:00:35 AM 35.5280 143.2950 99° East 362 417 13,200  Level FlightAware ADS-B
Sat 05:01:15 AM 35.5190 143.3640 99° East 362 417 13,200 150 Level FlightAware ADS-B
Sat 05:03:00 AM 35.6616 143.6400 57° Northeast  Level Estimated
Sat 05:04:00 AM 35.7436 143.7995 58° Northeast  Level Estimated
Sat 05:05:00 AM 35.8254 143.9595 58° Northeast  Level Estimated
Sat 05:06:00 AM 35.9069 144.1197 58° Northeast  Level Estimated
Sat 05:07:00 AM 35.9882 144.2803 58° Northeast  Level Estimated
Sat 05:08:00 AM 36.0693 144.4413 58° Northeast  Level Estimated
Sat 05:09:00 AM 36.1502 144.6025 58° Northeast  Level Estimated
Sat 05:10:00 AM 36.2309 144.7641 58° Northeast  Level Estimated
Sat 05:11:00 AM 36.3114 144.9260 58° Northeast  Level Estimated
Sat 05:12:00 AM 36.3916 145.0883 58° Northeast  Level Estimated
Sat 05:13:00 AM 36.4717 145.2508 58° Northeast  Level Estimated
Sat 05:14:00 AM 36.5515 145.4138 59° Northeast  Level Estimated
Sat 05:15:00 AM 36.6311 145.5770 59° Northeast  Level Estimated
Sat 05:16:00 AM 36.7104 145.7406 59° Northeast  Level Estimated
Sat 05:17:00 AM 36.7896 145.9045 59° Northeast  Level Estimated
Sat 05:18:00 AM 36.8685 146.0688 59° Northeast  Level Estimated
Sat 05:19:00 AM 36.9472 146.2334 59° Northeast  Level Estimated
Sat 05:20:00 AM 37.0256 146.3984 59° Northeast  Level Estimated
Sat 05:21:00 AM 37.1038 146.5636 59° Northeast  Level Estimated
Sat 05:22:00 AM 37.1818 146.7293 59° Northeast  Level Estimated
Sat 05:23:00 AM 37.2596 146.8952 59° Northeast  Level Estimated
Sat 05:24:00 AM 37.3371 147.0616 60° Northeast  Level Estimated
Sat 05:25:00 AM 37.4144 147.2282 60° Northeast  Level Estimated
Sat 05:26:00 AM 37.4915 147.3952 60° Northeast  Level Estimated
Sat 05:27:00 AM 37.5683 147.5626 60° Northeast  Level Estimated
Sat 05:28:00 AM 37.6452 147.7309 60° Northeast  Level Estimated
Sat 05:29:00 AM 37.7219 147.8996 60° Northeast  Level Estimated
Sat 05:30:00 AM 37.7983 148.0686 60° Northeast  Level Estimated
Sat 05:31:00 AM 37.8744 148.2379 60° Northeast  Level Estimated
Sat 05:32:00 AM 37.9503 148.4077 60° Northeast  Level Estimated
Sat 05:33:00 AM 38.0260 148.5777 61° Northeast  Level Estimated
Sat 05:34:00 AM 38.1014 148.7481 61° Northeast  Level Estimated
Sat 05:35:00 AM 38.1766 148.9189 61° Northeast  Level Estimated
Sat 05:36:00 AM 38.2515 149.0900 61° Northeast  Level Estimated
Sat 05:37:00 AM 38.3262 149.2615 61° Northeast  Level Estimated
Sat 05:38:00 AM 38.4006 149.4333 61° Northeast  Level Estimated
Sat 05:39:00 AM 38.4748 149.6055 61° Northeast  Level Estimated
Sat 05:40:00 AM 38.5488 149.7780 61° Northeast  Level Estimated
Sat 05:41:00 AM 38.6224 149.9509 61° Northeast  Level Estimated
Sat 05:42:00 AM 38.6958 150.1241 61° Northeast  Level Estimated
Sat 05:43:00 AM 38.7690 150.2977 62° Northeast  Level Estimated
Sat 05:44:00 AM 38.8419 150.4717 62° Northeast  Level Estimated
Sat 05:45:00 AM 38.9146 150.6460 62° Northeast  Level Estimated
Sat 05:46:00 AM 38.9869 150.8207 62° Northeast  Level Estimated
Sat 05:47:00 AM 39.0591 150.9957 62° Northeast  Level Estimated
Sat 05:48:00 AM 39.1309 151.1711 62° Northeast  Level Estimated
Sat 05:49:00 AM 39.2025 151.3468 62° Northeast  Level Estimated
Sat 05:50:00 AM 39.2739 151.5229 62° Northeast  Level Estimated
Sat 05:51:00 AM 39.3450 151.6994 62° Northeast  Level Estimated
Sat 05:52:00 AM 39.4159 151.8765 63° Northeast  Level Estimated
Sat 05:53:00 AM 39.4865 152.0540 63° Northeast  Level Estimated
Sat 05:54:00 AM 39.5569 152.2319 63° Northeast  Level Estimated
Sat 05:55:00 AM 39.6271 152.4101 63° Northeast  Level Estimated
Sat 05:56:00 AM 39.6969 152.5887 63° Northeast  Level Estimated
Sat 05:57:00 AM 39.7665 152.7676 63° Northeast  Level Estimated
Sat 05:58:00 AM 39.8358 152.9469 63° Northeast  Level Estimated
Sat 05:59:00 AM 39.9048 153.1266 63° Northeast  Level Estimated
Sat 06:00:00 AM 39.9736 153.3066 63° Northeast  Level Estimated
Sat 06:01:00 AM 40.0420 153.4870 64° Northeast  Level Estimated
Sat 06:02:00 AM 40.1102 153.6678 64° Northeast  Level Estimated
Sat 06:03:00 AM 40.1781 153.8489 64° Northeast  Level Estimated
Sat 06:04:00 AM 40.2458 154.0304 64° Northeast  Level Estimated
Sat 06:05:00 AM 40.3131 154.2122 64° Northeast  Level Estimated
Sat 06:06:00 AM 40.3801 154.3944 64° Northeast  Level Estimated
Sat 06:07:00 AM 40.4469 154.5770 64° Northeast  Level Estimated
Sat 06:08:00 AM 40.5134 154.7599 64° Northeast  Level Estimated
Sat 06:09:00 AM 40.5796 154.9432 65° Northeast  Level Estimated
Sat 06:10:00 AM 40.6455 155.1269 65° Northeast  Level Estimated
Sat 06:11:00 AM 40.7111 155.3109 65° Northeast  Level Estimated
Sat 06:12:00 AM 40.7764 155.4953 65° Northeast  Level Estimated
Sat 06:13:00 AM 40.8414 155.6800 65° Northeast  Level Estimated
Sat 06:14:00 AM 40.9062 155.8651 65° Northeast  Level Estimated
Sat 06:15:00 AM 40.9706 156.0506 65° Northeast  Level Estimated
Sat 06:16:00 AM 41.0347 156.2364 65° Northeast  Level Estimated
Sat 06:17:00 AM 41.0986 156.4226 65° Northeast  Level Estimated
Sat 06:18:00 AM 41.1621 156.6091 66° East  Level Estimated
Sat 06:19:00 AM 41.2253 156.7960 66° East  Level Estimated
Sat 06:20:00 AM 41.2882 156.9833 66° East  Level Estimated
Sat 06:21:00 AM 41.3509 157.1709 66° East  Level Estimated
Sat 06:22:00 AM 41.4132 157.3589 66° East  Level Estimated
Sat 06:23:00 AM 41.4752 157.5473 66° East  Level Estimated
Sat 06:24:00 AM 41.5369 157.7360 66° East  Level Estimated
Sat 06:25:00 AM 41.5983 157.9250 66° East  Level Estimated
Sat 06:26:00 AM 41.6594 158.1145 67° East  Level Estimated
Sat 06:27:00 AM 41.7202 158.3043 67° East  Level Estimated
Sat 06:28:00 AM 41.7806 158.4944 67° East  Level Estimated
Sat 06:29:00 AM 41.8408 158.6849 67° East  Level Estimated
Sat 06:30:00 AM 41.9006 158.8758 67° East  Level Estimated
Sat 06:31:00 AM 41.9601 159.0670 67° East  Level Estimated
Sat 06:32:00 AM 42.0193 159.2586 67° East  Level Estimated
Sat 06:33:00 AM 42.0782 159.4505 67° East  Level Estimated
Sat 06:34:00 AM 42.1368 159.6428 68° East  Level Estimated
Sat 06:35:00 AM 42.1950 159.8354 68° East  Level Estimated
Sat 06:36:00 AM 42.2529 160.0284 68° East  Level Estimated
Sat 06:37:00 AM 42.3105 160.2218 68° East  Level Estimated
Sat 06:38:00 AM 42.3678 160.4155 68° East  Level Estimated
Sat 06:39:00 AM 42.4247 160.6095 68° East  Level Estimated
Sat 06:40:00 AM 42.4813 160.8040 68° East  Level Estimated
Sat 06:41:00 AM 42.5376 160.9987 69° East  Level Estimated
Sat 06:42:00 AM 42.5936 161.1938 69° East  Level Estimated
Sat 06:43:00 AM 42.6492 161.3893 69° East  Level Estimated
Sat 06:44:00 AM 42.7044 161.5851 69° East  Level Estimated
Sat 06:45:00 AM 42.7594 161.7812 69° East  Level Estimated
Sat 06:46:00 AM 42.8139 161.9774 69° East  Level Estimated
Sat 06:47:00 AM 42.8681 162.1739 69° East  Level Estimated
Sat 06:48:00 AM 42.9219 162.3707 69° East  Level Estimated
Sat 06:49:00 AM 42.9754 162.5679 70° East  Level Estimated
Sat 06:50:00 AM 43.0286 162.7654 70° East  Level Estimated
Sat 06:51:00 AM 43.0814 162.9632 70° East  Level Estimated
Sat 06:52:00 AM 43.1339 163.1614 70° East  Level Estimated
Sat 06:53:00 AM 43.1861 163.3600 70° East  Level Estimated
Sat 06:54:00 AM 43.2379 163.5588 70° East  Level Estimated
Sat 06:55:00 AM 43.2893 163.7580 70° East  Level Estimated
Sat 06:56:00 AM 43.3404 163.9576 71° East  Level Estimated
Sat 06:57:00 AM 43.3912 164.1575 71° East  Level Estimated
Sat 06:58:00 AM 43.4416 164.3577 71° East  Level Estimated
Sat 06:59:00 AM 43.4916 164.5582 71° East  Level Estimated
Sat 07:00:00 AM 43.5414 164.7591 71° East  Level Estimated
Sat 07:01:00 AM 43.5907 164.9603 71° East  Level Estimated
Sat 07:02:00 AM 43.6397 165.1618 71° East  Level Estimated
Sat 07:03:00 AM 43.6884 165.3637 72° East  Level Estimated
Sat 07:04:00 AM 43.7366 165.5659 72° East  Level Estimated
Sat 07:05:00 AM 43.7846 165.7684 72° East  Level Estimated
Sat 07:06:00 AM 43.8322 165.9713 72° East  Level Estimated
Sat 07:07:00 AM 43.8794 166.1744 72° East  Level Estimated
Sat 07:08:00 AM 43.9263 166.3779 72° East  Level Estimated
Sat 07:09:00 AM 43.9728 166.5817 72° East  Level Estimated
Sat 07:10:00 AM 44.0189 166.7858 72° East  Level Estimated
Sat 07:11:00 AM 44.0647 166.9902 73° East  Level Estimated
Sat 07:12:00 AM 44.1101 167.1950 73° East  Level Estimated
Sat 07:12:11 AM 36.6000 165.0000 97° East 547 629 33,000  Level Oakland Oceanic (ODAPS)
Sat 07:12:55 AM 36.5833 165.1333 97° East 547 629 33,000  Level Oakland Oceanic (ODAPS)
Sat 07:13:00 AM 44.1551 167.4001 73° East  Level Estimated
Sat 07:14:00 AM 44.1998 167.6055 73° East  Level Estimated
Sat 07:15:00 AM 44.2441 167.8111 73° East  Level Estimated
Sat 07:16:00 AM 44.2880 168.0171 73° East  Level Estimated
Sat 07:17:00 AM 44.3316 168.2234 73° East  Level Estimated
Sat 07:18:00 AM 36.4847 166.1176 98° East 547 629 33,000  Level FlightAware Transoceanic
Sat 07:19:00 AM 36.4457 166.4506 98° East 547 629 33,000  Level FlightAware Transoceanic
Sat 07:20:00 AM 36.4249 166.6384 98° East 547 629 33,000  Level FlightAware Transoceanic
Sat 07:21:00 AM 36.4038 166.8261 98° East 547 629 33,000 545 Level FlightAware Transoceanic
Sat 07:21:50 AM 36.4000 166.8500 98° East 536 617 34,000  Climbing Oakland Oceanic (ODAPS)
Sat 07:22:00 AM 36.3824 167.0136 98° East 547 629 33,000 -857 Descending FlightAware Transoceanic
Sat 07:23:00 AM 36.3606 167.2011 98° East 547 629 33,000  Level FlightAware Transoceanic
Sat 07:24:00 AM 36.3386 167.3885 98° East 547 629 33,000  Level FlightAware Transoceanic
Sat 07:25:00 AM 36.3163 167.5758 98° East 547 629 33,000  Level FlightAware Transoceanic
Sat 07:26:00 AM 36.2937 167.7629 99° East 547 629 33,000 500 Level FlightAware Transoceanic
Sat 07:27:00 AM 36.2909 167.7798 99° East 536 617 34,000 500 Climbing FlightAware Transoceanic
Sat 07:28:00 AM 36.2683 167.9654 99° East 536 617 34,000  Level FlightAware Transoceanic
Sat 07:29:00 AM 36.2453 168.1509 99° East 536 617 34,000  Level FlightAware Transoceanic
Sat 07:30:00 AM 36.2220 168.3364 99° East 536 617 34,000  Level FlightAware Transoceanic
Sat 07:31:00 AM 36.1985 168.5217 99° East 536 617 34,000  Level FlightAware Transoceanic
Sat 07:32:00 AM 36.1747 168.7069 99° East 536 617 34,000  Level FlightAware Transoceanic
Sat 07:33:00 AM 36.1506 168.8919 99° East 536 617 34,000  Level FlightAware Transoceanic
Sat 07:34:00 AM 36.1262 169.0769 99° East 536 617 34,000  Level FlightAware Transoceanic
Sat 07:35:00 AM 36.1015 169.2618 99° East 536 617 34,000  Level FlightAware Transoceanic
Sat 07:36:00 AM 36.0766 169.4465 100° East 536 617 34,000  Level FlightAware Transoceanic
Sat 07:37:00 AM 36.0513 169.6311 100° East 536 617 34,000  Level FlightAware Transoceanic
Sat 07:38:00 AM 36.0258 169.8156 100° East 536 617 34,000  Level FlightAware Transoceanic
Sat 07:39:00 AM 36.0000 170.0000 87° East 536 617 34,000  Level FlightAware Transoceanic
Sat 07:39:44 AM 36.0000 170.0000 87° East 526 605 34,000  Level Oakland Oceanic (ODAPS)
Sat 07:40:00 AM 36.0077 170.1884 87° East 536 617 34,000  Level FlightAware Transoceanic
Sat 07:41:00 AM 36.0151 170.3768 87° East 536 617 34,000  Level FlightAware Transoceanic
Sat 07:42:00 AM 36.0222 170.5652 87° East 536 617 34,000  Level FlightAware Transoceanic
Sat 07:43:00 AM 36.0290 170.7537 87° East 536 617 34,000  Level FlightAware Transoceanic
Sat 07:44:00 AM 36.0355 170.9422 88° East 536 617 34,000  Level FlightAware Transoceanic
Sat 07:45:00 AM 36.0417 171.1307 88° East 536 617 34,000  Level FlightAware Transoceanic
Sat 07:46:00 AM 36.0404 171.0896 88° East 526 605 34,000  Level FlightAware Transoceanic
Sat 07:47:00 AM 36.0462 171.2713 88° East 526 605 34,000  Level FlightAware Transoceanic
Sat 07:48:00 AM 36.0517 171.4530 88° East 526 605 34,000  Level FlightAware Transoceanic
Sat 07:48:30 AM 36.0500 171.5333 88° East 525 604 34,000  Level Oakland Oceanic (ODAPS)
Sat 07:49:00 AM 36.0569 171.6347 88° East 526 605 34,000  Level FlightAware Transoceanic
Sat 07:50:00 AM 36.0618 171.8165 88° East 526 605 34,000  Level FlightAware Transoceanic
Sat 07:51:00 AM 36.0665 171.9983 88° East 526 605 34,000  Level FlightAware Transoceanic
Sat 07:52:00 AM 36.0709 172.1801 88° East 526 605 34,000  Level FlightAware Transoceanic
Sat 07:53:00 AM 36.0750 172.3620 88° East 526 605 34,000  Level FlightAware Transoceanic
Sat 07:54:00 AM 36.0768 172.6139 89° East 525 604 34,000  Level FlightAware Transoceanic
Sat 07:55:00 AM 36.0803 172.7941 89° East 525 604 34,000  Level FlightAware Transoceanic
Sat 07:56:00 AM 36.0836 172.9742 89° East 525 604 34,000  Level FlightAware Transoceanic
Sat 07:57:00 AM 36.0866 173.1544 89° East 525 604 34,000  Level FlightAware Transoceanic
Sat 07:58:00 AM 36.0893 173.3346 89° East 525 604 34,000  Level FlightAware Transoceanic
Sat 07:59:00 AM 36.0917 173.5148 89° East 525 604 34,000  Level FlightAware Transoceanic
Sat 08:00:00 AM 36.0939 173.6951 89° East 525 604 34,000  Level FlightAware Transoceanic
Sat 08:01:00 AM 36.0958 173.8753 89° East 525 604 34,000  Level FlightAware Transoceanic
Sat 08:02:00 AM 36.0974 174.0555 89° East 525 604 34,000  Level FlightAware Transoceanic
Sat 08:03:00 AM 36.0988 174.2358 90° East 525 604 34,000  Level FlightAware Transoceanic
Sat 08:04:00 AM 36.0999 174.4160 90° East 525 604 34,000  Level FlightAware Transoceanic
Sat 08:05:00 AM 36.1007 174.5963 90° East 525 604 34,000  Level FlightAware Transoceanic
Sat 08:06:00 AM 36.1013 174.7766 90° East 525 604 34,000  Level FlightAware Transoceanic
Sat 08:07:00 AM 36.1016 174.9568 90° East 525 604 34,000  Level FlightAware Transoceanic
Sat 08:08:00 AM 36.1016 175.1371 90° East 525 604 34,000  Level FlightAware Transoceanic
Sat 08:09:00 AM 36.1013 175.3174 90° East 525 604 34,000  Level FlightAware Transoceanic
Sat 08:10:00 AM 36.1008 175.4976 90° East 525 604 34,000  Level FlightAware Transoceanic
Sat 08:11:00 AM 36.1000 175.6779 90° East 525 604 34,000  Level FlightAware Transoceanic
Sat 08:12:00 AM 36.0989 175.8581 90° East 525 604 34,000  Level FlightAware Transoceanic
Sat 08:13:00 AM 36.0976 176.0384 91° East 525 604 34,000  Level FlightAware Transoceanic
Sat 08:14:00 AM 36.0960 176.2186 91° East 525 604 34,000  Level FlightAware Transoceanic
Sat 08:15:00 AM 36.0941 176.3989 91° East 525 604 34,000  Level FlightAware Transoceanic
Sat 08:15:11 AM 36.1000 176.2833 91° East 536 617 34,000  Level Oakland Oceanic (ODAPS)
Sat 08:16:00 AM 36.0920 176.5791 91° East 525 604 34,000  Level FlightAware Transoceanic
Sat 08:17:00 AM 36.0896 176.7593 91° East 525 604 34,000  Level FlightAware Transoceanic
Sat 08:18:00 AM 36.0869 176.9395 91° East 525 604 34,000  Level FlightAware Transoceanic
Sat 08:19:00 AM 36.0839 177.1197 91° East 525 604 34,000  Level FlightAware Transoceanic
Sat 08:20:00 AM 36.0807 177.2999 91° East 525 604 34,000  Level FlightAware Transoceanic
Sat 08:21:00 AM 36.0821 177.3992 91° East 536 617 34,000  Level FlightAware Transoceanic
Sat 08:22:00 AM 36.0781 177.5852 92° East 536 617 34,000  Level FlightAware Transoceanic
Sat 08:23:00 AM 36.0738 177.7711 92° East 536 617 34,000  Level FlightAware Transoceanic
Sat 08:24:00 AM 36.0692 177.9570 92° East 536 617 34,000  Level FlightAware Transoceanic
Sat 08:25:00 AM 36.0643 178.1429 92° East 536 617 34,000  Level FlightAware Transoceanic
Sat 08:26:00 AM 36.0592 178.3287 92° East 536 617 34,000  Level FlightAware Transoceanic
Sat 08:27:00 AM 36.0538 178.5145 92° East 536 617 34,000  Level FlightAware Transoceanic
Sat 08:28:00 AM 36.0480 178.7003 92° East 536 617 34,000  Level FlightAware Transoceanic
Sat 08:29:00 AM 36.0420 178.8861 92° East 536 617 34,000  Level FlightAware Transoceanic
Sat 08:30:00 AM 36.0358 179.0718 92° East 536 617 34,000  Level FlightAware Transoceanic
Sat 08:31:00 AM 36.0292 179.2575 93° East 536 617 34,000  Level FlightAware Transoceanic
Sat 08:32:00 AM 36.0223 179.4432 93° East 536 617 34,000  Level FlightAware Transoceanic
Sat 08:33:00 AM 36.0152 179.6288 93° East 536 617 34,000  Level FlightAware Transoceanic
Sat 08:34:00 AM 36.0077 179.8144 93° East 536 617 34,000  Level FlightAware Transoceanic
Sat 08:34:47 AM 36.0000 180.0000 66° East 583 671 34,000  Level Oakland Oceanic (ODAPS)
Sat 08:35:00 AM 36.0000 -180.0000 66° East 536 617 34,000  Level FlightAware Transoceanic
Sat 08:36:00 AM 36.0654 -179.8154 66° East 536 617 34,000  Level FlightAware Transoceanic
Sat 08:37:00 AM 36.1305 -179.6304 67° East 536 617 34,000  Level FlightAware Transoceanic
Sat 08:38:00 AM 36.1954 -179.4452 67° East 536 617 34,000  Level FlightAware Transoceanic
Sat 08:39:00 AM 36.2599 -179.2597 67° East 536 617 34,000  Level FlightAware Transoceanic
Sat 08:40:00 AM 36.3242 -179.0738 67° East 536 617 34,000  Level FlightAware Transoceanic
Sat 08:41:00 AM 36.3882 -178.8877 67° East 583 671 34,000  Level FlightAware Transoceanic
Sat 08:42:00 AM 36.4519 -178.7012 67° East 583 671 34,000  Level FlightAware Transoceanic
Sat 08:42:00 AM 36.4667 -178.6500 67° East 595 685 34,000  Level Oakland Oceanic (ODAPS)
Sat 08:43:00 AM 36.5153 -178.5145 67° East 583 671 34,000  Level FlightAware Transoceanic
Sat 08:44:00 AM 36.5784 -178.3274 67° East 583 671 34,000  Level FlightAware Transoceanic
Sat 08:45:00 AM 36.6412 -178.1400 67° East 583 671 34,000  Level FlightAware Transoceanic
Sat 08:46:00 AM 36.7037 -177.9523 68° East 583 671 34,000  Level FlightAware Transoceanic
Sat 08:47:00 AM 36.7659 -177.7643 68° East 583 671 34,000  Level FlightAware Transoceanic
Sat 08:48:00 AM 36.8487 -177.5057 68° East 595 685 34,000  Level FlightAware Transoceanic
Sat 08:49:00 AM 36.9113 -177.3139 68° East 595 685 34,000  Level FlightAware Transoceanic
Sat 08:50:00 AM 36.9735 -177.1218 68° East 595 685 34,000  Level FlightAware Transoceanic
Sat 08:51:00 AM 37.0355 -176.9293 68° East 595 685 34,000  Level FlightAware Transoceanic
Sat 08:52:00 AM 37.0972 -176.7366 68° East 595 685 34,000  Level FlightAware Transoceanic
Sat 08:53:00 AM 37.1585 -176.5435 68° East 595 685 34,000  Level FlightAware Transoceanic
Sat 08:54:00 AM 37.2196 -176.3501 68° East 595 685 34,000  Level FlightAware Transoceanic
Sat 08:55:00 AM 37.2803 -176.1564 69° East 595 685 34,000  Level FlightAware Transoceanic
Sat 08:56:00 AM 37.3407 -175.9624 69° East 595 685 34,000  Level FlightAware Transoceanic
Sat 08:57:00 AM 37.4008 -175.7681 69° East 595 685 34,000  Level FlightAware Transoceanic
Sat 08:58:00 AM 37.4605 -175.5734 69° East 595 685 34,000  Level FlightAware Transoceanic
Sat 08:59:00 AM 37.5200 -175.3785 69° East 595 685 34,000  Level FlightAware Transoceanic
Sat 09:00:00 AM 37.5791 -175.1832 69° East 595 685 34,000  Level FlightAware Transoceanic
Sat 09:01:00 AM 37.6379 -174.9877 69° East 595 685 34,000  Level FlightAware Transoceanic
Sat 09:02:00 AM 37.6964 -174.7918 69° East 595 685 34,000  Level FlightAware Transoceanic
Sat 09:03:00 AM 37.7546 -174.5956 70° East 595 685 34,000  Level FlightAware Transoceanic
Sat 09:04:00 AM 37.8124 -174.3991 70° East 595 685 34,000  Level FlightAware Transoceanic
Sat 09:05:00 AM 37.8699 -174.2023 70° East 595 685 34,000  Level FlightAware Transoceanic
Sat 09:06:00 AM 37.9271 -174.0052 70° East 595 685 34,000  Level FlightAware Transoceanic
Sat 09:07:00 AM 37.9840 -173.8078 70° East 595 685 34,000  Level FlightAware Transoceanic
Sat 09:08:00 AM 38.0405 -173.6101 70° East 595 685 34,000  Level FlightAware Transoceanic
Sat 09:08:40 AM 38.0833 -173.4333 70° East 588 677 34,000  Level Oakland Oceanic (ODAPS)
Sat 09:09:00 AM 38.0967 -173.4121 70° East 595 685 34,000  Level FlightAware Transoceanic
Sat 09:10:00 AM 38.1525 -173.2138 70° East 595 685 34,000  Level FlightAware Transoceanic
Sat 09:11:00 AM 38.2080 -173.0152 70° East 595 685 34,000  Level FlightAware Transoceanic
Sat 09:12:00 AM 38.2632 -172.8162 71° East 595 685 34,000  Level FlightAware Transoceanic
Sat 09:13:00 AM 38.3181 -172.6170 71° East 595 685 34,000  Level FlightAware Transoceanic
Sat 09:14:00 AM 38.4000 -172.2986 71° East 588 677 34,000  Level FlightAware Transoceanic
Sat 09:15:00 AM 38.4517 -172.1086 71° East 588 677 34,000  Level FlightAware Transoceanic
Sat 09:16:00 AM 38.5031 -171.9182 71° East 588 677 34,000  Level FlightAware Transoceanic
Sat 09:17:00 AM 38.5542 -171.7276 71° East 588 677 34,000  Level FlightAware Transoceanic
Sat 09:18:00 AM 38.6050 -171.5367 71° East 588 677 34,000  Level FlightAware Transoceanic
Sat 09:19:00 AM 38.6555 -171.3456 71° East 588 677 34,000  Level FlightAware Transoceanic
Sat 09:20:00 AM 38.7056 -171.1541 72° East 588 677 34,000  Level FlightAware Transoceanic
Sat 09:21:00 AM 38.7555 -170.9624 72° East 588 677 34,000  Level FlightAware Transoceanic
Sat 09:22:00 AM 38.8050 -170.7705 72° East 588 677 34,000  Level FlightAware Transoceanic
Sat 09:23:00 AM 38.8542 -170.5783 72° East 588 677 34,000  Level FlightAware Transoceanic
Sat 09:24:00 AM 38.9031 -170.3858 72° East 588 677 34,000  Level FlightAware Transoceanic
Sat 09:25:00 AM 38.9517 -170.1930 72° East 588 677 34,000  Level FlightAware Transoceanic
Sat 09:26:00 AM 39.0000 -170.0000 72° East 588 677 34,000  Level FlightAware Transoceanic
Sat 09:26:04 AM 39.0000 -170.0000 72° East 584 672 34,000  Level Oakland Oceanic (ODAPS)
Sat 09:27:00 AM 39.0503 -169.7979 72° East 588 677 34,000  Level FlightAware Transoceanic
Sat 09:28:00 AM 39.1002 -169.5956 72° East 588 677 34,000  Level FlightAware Transoceanic
Sat 09:29:00 AM 39.1497 -169.3929 73° East 588 677 34,000  Level FlightAware Transoceanic
Sat 09:30:00 AM 39.1989 -169.1900 73° East 588 677 34,000  Level FlightAware Transoceanic
Sat 09:31:00 AM 39.2478 -168.9868 73° East 588 677 34,000  Level FlightAware Transoceanic
Sat 09:32:00 AM 39.2904 -168.8082 73° East 584 672 34,000  Level FlightAware Transoceanic
Sat 09:33:00 AM 39.3376 -168.6086 73° East 584 672 34,000  Level FlightAware Transoceanic
Sat 09:34:00 AM 39.3844 -168.4087 73° East 584 672 34,000  Level FlightAware Transoceanic
Sat 09:35:00 AM 39.4310 -168.2086 73° East 584 672 34,000  Level FlightAware Transoceanic
Sat 09:35:12 AM 39.4333 -168.1667 73° East 580 667 34,000  Level Oakland Oceanic (ODAPS)
Sat 09:36:00 AM 39.4771 -168.0082 73° East 584 672 34,000  Level FlightAware Transoceanic
Sat 09:37:00 AM 39.5230 -167.8076 74° East 584 672 34,000  Level FlightAware Transoceanic
Sat 09:38:00 AM 39.5685 -167.6067 74° East 584 672 34,000  Level FlightAware Transoceanic
Sat 09:39:00 AM 39.6136 -167.4055 74° East 584 672 34,000  Level FlightAware Transoceanic
Sat 09:40:00 AM 39.6584 -167.2040 74° East 584 672 34,000  Level FlightAware Transoceanic
Sat 09:41:00 AM 39.7045 -166.9665 74° East 580 667 34,000  Level FlightAware Transoceanic
Sat 09:42:00 AM 39.7485 -166.7656 74° East 580 667 34,000  Level FlightAware Transoceanic
Sat 09:43:00 AM 39.7921 -166.5644 74° East 580 667 34,000  Level FlightAware Transoceanic
Sat 09:44:00 AM 39.8354 -166.3629 74° East 580 667 34,000  Level FlightAware Transoceanic
Sat 09:45:00 AM 39.8784 -166.1612 75° East 580 667 34,000  Level FlightAware Transoceanic
Sat 09:46:00 AM 39.9210 -165.9593 75° East 580 667 34,000  Level FlightAware Transoceanic
Sat 09:47:00 AM 39.9632 -165.7571 75° East 580 667 34,000  Level FlightAware Transoceanic
Sat 09:48:00 AM 40.0051 -165.5546 75° East 580 667 34,000  Level FlightAware Transoceanic
Sat 09:49:00 AM 40.0467 -165.3519 75° East 580 667 34,000  Level FlightAware Transoceanic
Sat 09:50:00 AM 40.0879 -165.1490 75° East 580 667 34,000  Level FlightAware Transoceanic
Sat 09:51:00 AM 40.1287 -164.9458 75° East 580 667 34,000  Level FlightAware Transoceanic
Sat 09:52:00 AM 40.1692 -164.7424 75° East 580 667 34,000  Level FlightAware Transoceanic
Sat 09:53:00 AM 40.2093 -164.5387 76° East 580 667 34,000  Level FlightAware Transoceanic
Sat 09:54:00 AM 40.2491 -164.3348 76° East 580 667 34,000  Level FlightAware Transoceanic
Sat 09:55:00 AM 40.2885 -164.1306 76° East 580 667 34,000  Level FlightAware Transoceanic
Sat 09:56:00 AM 40.3275 -163.9262 76° East 580 667 34,000  Level FlightAware Transoceanic
Sat 09:57:00 AM 40.3662 -163.7216 76° East 580 667 34,000  Level FlightAware Transoceanic
Sat 09:58:00 AM 40.4045 -163.5168 76° East 580 667 34,000  Level FlightAware Transoceanic
Sat 09:59:00 AM 40.4425 -163.3117 76° East 580 667 34,000  Level FlightAware Transoceanic
Sat 10:00:00 AM 40.4801 -163.1063 77° East 580 667 34,000  Level FlightAware Transoceanic
Sat 10:01:00 AM 40.5173 -162.9008 77° East 580 667 34,000  Level FlightAware Transoceanic
Sat 10:01:52 AM 40.5167 -162.8667 77° East 567 652 34,000  Level Oakland Oceanic (ODAPS)
Sat 10:02:00 AM 40.5542 -162.6950 77° East 580 667 34,000  Level FlightAware Transoceanic
Sat 10:03:00 AM 40.5907 -162.4890 77° East 580 667 34,000  Level FlightAware Transoceanic
Sat 10:04:00 AM 40.6269 -162.2828 77° East 580 667 34,000  Level FlightAware Transoceanic
Sat 10:05:00 AM 40.6626 -162.0763 77° East 580 667 34,000  Level FlightAware Transoceanic
Sat 10:06:00 AM 40.6980 -161.8696 77° East 580 667 34,000  Level FlightAware Transoceanic
Sat 10:07:00 AM 40.7331 -161.6628 77° East 580 667 34,000  Level FlightAware Transoceanic
Sat 10:08:00 AM 40.7325 -161.6432 77° East 567 652 34,000  Level FlightAware Transoceanic
Sat 10:09:00 AM 40.7672 -161.4386 77° East 567 652 34,000  Level FlightAware Transoceanic
Sat 10:10:00 AM 40.8016 -161.2337 78° East 567 652 34,000  Level FlightAware Transoceanic
Sat 10:11:00 AM 40.8355 -161.0286 78° East 567 652 34,000  Level FlightAware Transoceanic
Sat 10:12:00 AM 40.8692 -160.8233 78° East 567 652 34,000  Level FlightAware Transoceanic
Sat 10:13:00 AM 40.9024 -160.6178 78° East 567 652 34,000  Level FlightAware Transoceanic
Sat 10:14:00 AM 40.9353 -160.4120 78° East 567 652 34,000  Level FlightAware Transoceanic
Sat 10:15:00 AM 40.9678 -160.2061 78° East 567 652 34,000  Level FlightAware Transoceanic
Sat 10:16:00 AM 41.0000 -160.0000 79° East 567 652 34,000  Level FlightAware Transoceanic
Sat 10:16:14 AM 41.0000 -160.0000 79° East 579 666 34,000  Level Oakland Oceanic (ODAPS)
Sat 10:17:00 AM 41.0309 -159.7863 79° East 567 652 34,000  Level FlightAware Transoceanic
Sat 10:18:00 AM 41.0613 -159.5724 79° East 567 652 34,000  Level FlightAware Transoceanic
Sat 10:19:00 AM 41.0914 -159.3583 80° East 567 652 34,000  Level FlightAware Transoceanic
Sat 10:20:00 AM 41.1211 -159.1440 80° East 567 652 34,000  Level FlightAware Transoceanic
Sat 10:21:00 AM 41.1503 -158.9296 80° East 567 652 34,000  Level FlightAware Transoceanic
Sat 10:22:00 AM 41.1755 -158.7423 80° East 579 666 34,000  Level FlightAware Transoceanic
Sat 10:23:00 AM 41.2035 -158.5321 80° East 579 666 34,000  Level FlightAware Transoceanic
Sat 10:24:00 AM 41.2310 -158.3216 80° East 579 666 34,000  Level FlightAware Transoceanic
Sat 10:25:00 AM 41.2581 -158.1110 80° East 579 666 34,000  Level FlightAware Transoceanic
Sat 10:26:00 AM 41.2849 -157.9002 80° East 579 666 34,000  Level FlightAware Transoceanic
Sat 10:28:33 AM 41.3333 -157.4667 81° East 583 671 34,000  Level Oakland Oceanic (ODAPS)
Sat 10:28:46 AM 41.3570 -157.3162 81° East 579 666 34,000  Level FlightAware Transoceanic
Sat 10:30:00 AM 41.3882 -157.0554 81° East 579 666 34,000  Level FlightAware Transoceanic
Sat 10:31:00 AM 41.4130 -156.8438 81° East 579 666 34,000  Level FlightAware Transoceanic
Sat 10:32:00 AM 41.4375 -156.6320 81° East 579 666 34,000  Level FlightAware Transoceanic
Sat 10:33:00 AM 41.4615 -156.4200 81° East 579 666 34,000  Level FlightAware Transoceanic
Sat 10:34:00 AM 41.4818 -156.1985 82° East 583 671 34,000  Level FlightAware Transoceanic
Sat 10:35:00 AM 41.5052 -155.9866 82° East 583 671 34,000  Level FlightAware Transoceanic
Sat 10:36:00 AM 41.5282 -155.7745 82° East 583 671 34,000  Level FlightAware Transoceanic
Sat 10:37:00 AM 41.5508 -155.5623 82° East 583 671 34,000  Level FlightAware Transoceanic
Sat 10:38:00 AM 41.5730 -155.3499 82° East 583 671 34,000  Level FlightAware Transoceanic
Sat 10:39:00 AM 41.5948 -155.1374 82° East 583 671 34,000  Level FlightAware Transoceanic
Sat 10:40:00 AM 41.6163 -154.9247 82° East 583 671 34,000  Level FlightAware Transoceanic
Sat 10:41:00 AM 41.6373 -154.7119 83° East 583 671 34,000  Level FlightAware Transoceanic
Sat 10:42:00 AM 41.6580 -154.4990 83° East 583 671 34,000  Level FlightAware Transoceanic
Sat 10:43:00 AM 41.6782 -154.2859 83° East 583 671 34,000  Level FlightAware Transoceanic
Sat 10:44:00 AM 41.6981 -154.0727 83° East 583 671 34,000  Level FlightAware Transoceanic
Sat 10:45:00 AM 41.7175 -153.8594 83° East 583 671 34,000  Level FlightAware Transoceanic
Sat 10:46:00 AM 41.7366 -153.6459 83° East 583 671 34,000  Level FlightAware Transoceanic
Sat 10:47:00 AM 41.7553 -153.4324 83° East 583 671 34,000  Level FlightAware Transoceanic
Sat 10:48:00 AM 41.7736 -153.2186 84° East 583 671 34,000  Level FlightAware Transoceanic
Sat 10:49:00 AM 41.7915 -153.0048 84° East 583 671 34,000  Level FlightAware Transoceanic
Sat 10:50:00 AM 41.8089 -152.7909 84° East 583 671 34,000  Level FlightAware Transoceanic
Sat 10:51:00 AM 41.8260 -152.5768 84° East 583 671 34,000  Level FlightAware Transoceanic
Sat 10:52:00 AM 41.8427 -152.3626 84° East 583 671 34,000  Level FlightAware Transoceanic
Sat 10:53:00 AM 41.8590 -152.1484 84° East 583 671 34,000  Level FlightAware Transoceanic
Sat 10:54:00 AM 41.8749 -151.9340 84° East 583 671 34,000  Level FlightAware Transoceanic
Sat 10:55:00 AM 41.8904 -151.7195 85° East 583 671 34,000  Level FlightAware Transoceanic
Sat 10:55:14 AM 41.8833 -151.7333 84° East 598 688 34,000  Level Oakland Oceanic (ODAPS)
Sat 10:56:00 AM 41.9055 -151.5049 85° East 583 671 34,000  Level FlightAware Transoceanic
Sat 10:57:00 AM 41.9202 -151.2902 85° East 583 671 34,000  Level FlightAware Transoceanic
Sat 10:58:00 AM 41.9345 -151.0754 85° East 583 671 34,000  Level FlightAware Transoceanic
Sat 10:59:00 AM 41.9484 -150.8605 85° East 583 671 34,000  Level FlightAware Transoceanic
Sat 11:00:00 AM 41.9619 -150.6455 85° East 583 671 34,000  Level FlightAware Transoceanic
Sat 11:01:00 AM 41.9733 -150.4339 85° East 598 688 34,000  Level FlightAware Transoceanic
Sat 11:02:00 AM 41.9868 -150.2170 85° East 598 688 34,000  Level FlightAware Transoceanic
Sat 11:03:00 AM 42.0000 -150.0000 94° East 598 688 34,000  Level FlightAware Transoceanic
Sat 11:03:01 AM 42.0000 -150.0000 94° East 592 681 34,000  Level Oakland Oceanic (ODAPS)
Sat 11:04:00 AM 41.9873 -149.7749 94° East 598 688 34,000  Level FlightAware Transoceanic
Sat 11:05:00 AM 41.9741 -149.5498 95° East 598 688 34,000  Level FlightAware Transoceanic
Sat 11:06:00 AM 41.9605 -149.3248 95° East 598 688 34,000  Level FlightAware Transoceanic
Sat 11:07:00 AM 41.9465 -149.1000 95° East 598 688 34,000  Level FlightAware Transoceanic
Sat 11:08:00 AM 41.9321 -148.8752 95° East 598 688 34,000  Level FlightAware Transoceanic
Sat 11:09:00 AM 41.9191 -148.6799 95° East 592 681 34,000  Level FlightAware Transoceanic
Sat 11:10:00 AM 41.9042 -148.4602 95° East 592 681 34,000  Level FlightAware Transoceanic
Sat 11:11:00 AM 41.8888 -148.2406 95° East 592 681 34,000  Level FlightAware Transoceanic
Sat 11:12:00 AM 41.8730 -148.0211 96° East 592 681 34,000  Level FlightAware Transoceanic
Sat 11:13:00 AM 41.8568 -147.8018 96° East 592 681 34,000  Level FlightAware Transoceanic
Sat 11:14:00 AM 41.8402 -147.5825 96° East 592 681 34,000  Level FlightAware Transoceanic
Sat 11:15:00 AM 41.8232 -147.3634 96° East 592 681 34,000  Level FlightAware Transoceanic
Sat 11:16:00 AM 41.8057 -147.1444 96° East 592 681 34,000  Level FlightAware Transoceanic
Sat 11:17:00 AM 41.7879 -146.9255 96° East 592 681 34,000  Level FlightAware Transoceanic
Sat 11:18:00 AM 41.7696 -146.7067 96° East 592 681 34,000  Level FlightAware Transoceanic
Sat 11:19:00 AM 41.7509 -146.4881 97° East 592 681 34,000  Level FlightAware Transoceanic
Sat 11:20:00 AM 41.7318 -146.2695 97° East 592 681 34,000  Level FlightAware Transoceanic
Sat 11:21:00 AM 41.7122 -146.0512 97° East 592 681 34,000  Level FlightAware Transoceanic
Sat 11:21:54 AM 41.6833 -145.8167 97° East 597 687 34,000  Level Oakland Oceanic (ODAPS)
Sat 11:22:00 AM 41.6923 -145.8329 97° East 592 681 34,000  Level FlightAware Transoceanic
Sat 11:23:00 AM 41.6720 -145.6148 97° East 592 681 34,000  Level FlightAware Transoceanic
Sat 11:24:00 AM 41.6512 -145.3968 97° East 592 681 34,000  Level FlightAware Transoceanic
Sat 11:25:00 AM 41.6300 -145.1790 97° East 592 681 34,000  Level FlightAware Transoceanic
Sat 11:26:00 AM 41.6084 -144.9613 98° East 592 681 34,000  Level FlightAware Transoceanic
Sat 11:27:00 AM 41.5864 -144.7438 98° East 592 681 34,000  Level FlightAware Transoceanic
Sat 11:28:00 AM 41.5569 -144.5139 98° East 597 687 34,000  Level FlightAware Transoceanic
Sat 11:29:00 AM 41.5344 -144.2973 98° East 597 687 34,000  Level FlightAware Transoceanic
Sat 11:30:00 AM 41.5115 -144.0808 98° East 597 687 34,000  Level FlightAware Transoceanic
Sat 11:31:00 AM 41.4882 -143.8645 98° East 597 687 34,000  Level FlightAware Transoceanic
Sat 11:32:00 AM 41.4645 -143.6483 98° East 597 687 34,000  Level FlightAware Transoceanic
Sat 11:33:00 AM 41.4404 -143.4323 99° East 597 687 34,000  Level FlightAware Transoceanic
Sat 11:34:00 AM 41.4158 -143.2165 99° East 597 687 34,000  Level FlightAware Transoceanic
Sat 11:35:00 AM 41.3909 -143.0008 99° East 597 687 34,000  Level FlightAware Transoceanic
Sat 11:36:00 AM 41.3656 -142.7853 99° East 597 687 34,000  Level FlightAware Transoceanic
Sat 11:37:00 AM 41.3399 -142.5700 99° East 597 687 34,000  Level FlightAware Transoceanic
Sat 11:38:00 AM 41.3137 -142.3548 99° East 597 687 34,000  Level FlightAware Transoceanic
Sat 11:39:00 AM 41.2872 -142.1398 99° East 597 687 34,000  Level FlightAware Transoceanic
Sat 11:40:00 AM 41.2603 -141.9250 100° East 597 687 34,000  Level FlightAware Transoceanic
Sat 11:41:00 AM 41.2329 -141.7104 100° East 597 687 34,000  Level FlightAware Transoceanic
Sat 11:42:00 AM 41.2052 -141.4959 100° East 597 687 34,000  Level FlightAware Transoceanic
Sat 11:43:00 AM 41.1771 -141.2817 100° East 597 687 34,000  Level FlightAware Transoceanic
Sat 11:44:00 AM 41.1485 -141.0676 100° East 597 687 34,000  Level FlightAware Transoceanic
Sat 11:45:00 AM 41.1196 -140.8537 100° East 597 687 34,000  Level FlightAware Transoceanic
Sat 11:46:00 AM 41.0903 -140.6400 100° East 597 687 34,000  Level FlightAware Transoceanic
Sat 11:47:00 AM 41.0606 -140.4265 101° East 597 687 34,000  Level FlightAware Transoceanic
Sat 11:48:00 AM 41.0305 -140.2131 101° East 597 687 34,000 -612 Level FlightAware Transoceanic
Sat 11:48:38 AM 41.0000 -140.0333 90° East 597 687 33,000  Descending Oakland Oceanic (ODAPS)
Sat 11:49:00 AM 41.0000 -140.0000 101° East 597 687 34,000  Climbing FlightAware Transoceanic
Sat 11:49:09 AM 41.0000 -140.0000 101° East 580 667 33,000  Descending Oakland Oceanic (ODAPS)
Sat 11:50:00 AM 40.9680 -139.7903 102° East 597 687 34,000 541 Climbing FlightAware Transoceanic
Sat 11:51:00 AM 40.9355 -139.5809 102° East 597 687 34,000  Level FlightAware Transoceanic
Sat 11:52:00 AM 40.9027 -139.3717 102° East 597 687 34,000  Level FlightAware Transoceanic
Sat 11:53:00 AM 40.8696 -139.1626 102° East 597 687 34,000  Level FlightAware Transoceanic
Sat 11:54:00 AM 40.8360 -138.9538 102° East 597 687 34,000 -500 Level FlightAware Transoceanic
Sat 11:55:00 AM 40.8021 -138.7452 102° East 580 667 33,000 -500 Descending FlightAware Transoceanic
Sat 11:56:00 AM 40.7678 -138.5368 102° East 580 667 33,000  Level FlightAware Transoceanic
Sat 11:57:00 AM 40.7331 -138.3287 102° East 580 667 33,000  Level FlightAware Transoceanic
Sat 11:58:00 AM 40.6980 -138.1207 103° East 580 667 33,000  Level FlightAware Transoceanic
Sat 11:59:00 AM 40.6626 -137.9130 103° East 580 667 33,000  Level FlightAware Transoceanic
Sat 12:00:00 PM 40.6268 -137.7054 103° East 580 667 33,000  Level FlightAware Transoceanic
Sat 12:01:00 PM 40.5906 -137.4982 103° East 580 667 33,000  Level FlightAware Transoceanic
Sat 12:02:00 PM 40.5541 -137.2911 103° East 580 667 33,000  Level FlightAware Transoceanic
Sat 12:03:00 PM 40.5172 -137.0843 103° East 580 667 33,000  Level FlightAware Transoceanic
Sat 12:04:00 PM 40.4799 -136.8777 103° East 580 667 33,000  Level FlightAware Transoceanic
Sat 12:05:00 PM 40.4423 -136.6713 104° East 580 667 33,000  Level FlightAware Transoceanic
Sat 12:06:00 PM 40.4043 -136.4651 104° East 580 667 33,000  Level FlightAware Transoceanic
Sat 12:07:00 PM 40.3659 -136.2592 104° East 580 667 33,000  Level FlightAware Transoceanic
Sat 12:08:00 PM 40.3271 -136.0535 104° East 580 667 33,000  Level FlightAware Transoceanic
Sat 12:09:00 PM 40.2880 -135.8481 104° East 580 667 33,000  Level FlightAware Transoceanic
Sat 12:10:00 PM 40.2486 -135.6429 104° East 580 667 33,000  Level FlightAware Transoceanic
Sat 12:11:00 PM 40.2087 -135.4379 104° East 580 667 33,000  Level FlightAware Transoceanic
Sat 12:12:00 PM 40.1685 -135.2332 104° East 580 667 33,000  Level FlightAware Transoceanic
Sat 12:13:00 PM 40.1280 -135.0287 105° East 580 667 33,000  Level FlightAware Transoceanic
Sat 12:14:00 PM 40.0871 -134.8245 105° East 580 667 33,000  Level FlightAware Transoceanic
Sat 12:15:00 PM 40.0458 -134.6205 105° East 580 667 33,000 1,600 Level FlightAware Transoceanic
Sat 12:15:15 PM 40.0333 -134.5333 105° East 575 662 35,000  Climbing Oakland Oceanic (ODAPS)
Sat 12:16:00 PM 40.0042 -134.4168 105° East 580 667 33,000 -1,143 Descending FlightAware Transoceanic
Sat 12:17:00 PM 39.9622 -134.2133 105° East 580 667 33,000  Level FlightAware Transoceanic
Sat 12:18:00 PM 39.9199 -134.0101 105° East 580 667 33,000  Level FlightAware Transoceanic
Sat 12:19:00 PM 39.8772 -133.8071 105° East 580 667 33,000  Level FlightAware Transoceanic
Sat 12:20:00 PM 39.8341 -133.6043 106° East 580 667 33,000 1,000 Level FlightAware Transoceanic
Sat 12:21:00 PM 39.7808 -133.3378 106° East 575 662 35,000 1,000 Climbing FlightAware Transoceanic
Sat 12:22:00 PM 39.7376 -133.1394 106° East 575 662 35,000  Level FlightAware Transoceanic
Sat 12:23:00 PM 39.6940 -132.9413 106° East 575 662 35,000  Level FlightAware Transoceanic
Sat 12:24:00 PM 39.6500 -132.7434 106° East 575 662 35,000  Level FlightAware Transoceanic
Sat 12:25:00 PM 39.6057 -132.5458 106° East 575 662 35,000  Level FlightAware Transoceanic
Sat 12:26:00 PM 39.5611 -132.3484 106° East 575 662 35,000  Level FlightAware Transoceanic
Sat 12:27:00 PM 39.5162 -132.1513 107° East 575 662 35,000  Level FlightAware Transoceanic
Sat 12:28:00 PM 39.4709 -131.9544 107° East 575 662 35,000  Level FlightAware Transoceanic
Sat 12:29:00 PM 39.4253 -131.7578 107° East 575 662 35,000  Level FlightAware Transoceanic
Sat 12:30:00 PM 39.3793 -131.5614 107° East 575 662 35,000  Level FlightAware Transoceanic
Sat 12:31:00 PM 39.3331 -131.3653 107° East 575 662 35,000  Level FlightAware Transoceanic
Sat 12:32:00 PM 39.2864 -131.1695 107° East 575 662 35,000  Level FlightAware Transoceanic
Sat 12:33:00 PM 39.2395 -130.9739 107° East 575 662 35,000  Level FlightAware Transoceanic
Sat 12:34:00 PM 39.1923 -130.7786 107° East 575 662 35,000  Level FlightAware Transoceanic
Sat 12:35:00 PM 39.1447 -130.5836 108° East 575 662 35,000  Level FlightAware Transoceanic
Sat 12:36:00 PM 39.0968 -130.3888 108° East 575 662 35,000  Level FlightAware Transoceanic
Sat 12:37:00 PM 39.0485 -130.1942 108° East 575 662 35,000  Level FlightAware Transoceanic
Sat 12:38:00 PM 39.0000 -130.0000 102° East 575 662 35,000 1,277 Level FlightAware Transoceanic
Sat 12:38:34 PM 39.0000 -130.0000 102° East 555 639 37,000  Climbing Oakland Oceanic (ODAPS)
Sat 12:39:00 PM 38.9668 -129.7986 102° East 575 662 35,000 -1,395 Descending FlightAware Transoceanic
Sat 12:40:00 PM 38.9333 -129.5974 102° East 575 662 35,000  Level FlightAware Transoceanic
Sat 12:41:00 PM 38.8995 -129.3965 102° East 575 662 35,000 1,034 Level FlightAware Transoceanic
Sat 12:41:56 PM 38.9000 -129.3500 103° East 556 640 37,000  Climbing Oakland Oceanic (ODAPS)
Sat 12:42:00 PM 38.8653 -129.1957 102° East 575 662 35,000 -1,875 Descending FlightAware Transoceanic
Sat 12:43:00 PM 38.8308 -128.9951 103° East 575 662 35,000 1,000 Level FlightAware Transoceanic
Sat 12:44:00 PM 38.8090 -128.8698 103° East 555 639 37,000 1,000 Climbing FlightAware Transoceanic
Sat 12:45:00 PM 38.7761 -128.6820 103° East 555 639 37,000  Level FlightAware Transoceanic
Sat 12:46:00 PM 38.7429 -128.4944 103° East 555 639 37,000  Level FlightAware Transoceanic
Sat 12:47:00 PM 38.7094 -128.3070 103° East 555 639 37,000  Level FlightAware Transoceanic
Sat 12:48:00 PM 38.6892 -128.1714 103° East 556 640 37,000  Level FlightAware Transoceanic
Sat 12:49:00 PM 38.6529 -127.9757 103° East 556 640 37,000  Level FlightAware Transoceanic
Sat 12:50:00 PM 38.6163 -127.7802 104° East 556 640 37,000  Level FlightAware Transoceanic
Sat 12:51:00 PM 38.5794 -127.5848 104° East 556 640 37,000  Level FlightAware Transoceanic
Sat 12:51:49 PM 38.5594 -127.4750 111° Southeast 556 640 37,000  Level Oakland Center
Sat 12:52:00 PM 38.5421 -127.3897 104° East 556 640 37,000  Level FlightAware Transoceanic
Sat 12:52:51 PM 38.5167 -127.2453 103° East 557 641 37,000  Level Oakland Center
Sat 12:53:00 PM 38.5046 -127.1947 104° East 556 640 37,000  Level FlightAware Transoceanic
Sat 12:53:52 PM 38.4789 -127.0556 104° East 556 640 37,000  Level Oakland Center
Sat 12:54:00 PM 38.4667 -127.0000 111° Southeast 556 640 37,000  Level FlightAware Transoceanic
Sat 12:54:53 PM 38.4314 -126.8694 108° East 554 638 37,000  Level Oakland Center
Sat 12:55:00 PM 38.4094 -126.8114 111° Southeast 556 640 37,000 -98 Level FlightAware Transoceanic
Sat 12:55:54 PM 38.3656 -126.6950 116° Southeast 549 632 36,900  Descending Oakland Center
Sat 12:56:00 PM 38.3518 -126.6232 111° Southeast 556 640 37,000  Climbing FlightAware Transoceanic
Sat 12:56:55 PM 38.3000 -126.5181 115° Southeast 551 634 36,900 -52 Descending Oakland Center
Sat 12:57:56 PM 38.2353 -126.3414 115° Southeast 552 635 36,900  Level Oakland Center
Sat 12:58:57 PM 38.1722 -126.1658 115° Southeast 550 633 36,900  Level Oakland Center
Sat 12:59:58 PM 38.1075 -125.9903 115° Southeast 550 633 36,900  Level Oakland Center
Sat 01:01:00 PM 38.0444 -125.8183 115° Southeast 543 625 36,900  Level Oakland Center
Sat 01:02:01 PM 37.9817 -125.6475 115° Southeast 539 620 36,900 49 Level Oakland Center
Sat 01:03:02 PM 37.9047 -125.4417 115° Southeast 539 620 37,000 -148 Climbing Oakland Center
Sat 01:04:03 PM 37.8406 -125.2736 116° Southeast 535 616 36,600 -984 Descending Oakland Center
Sat 01:05:04 PM 37.7761 -125.1058 116° Southeast 532 612 35,000 -836 Descending Oakland Center
Sat 01:06:05 PM 37.7108 -124.9356 116° Southeast 540 621 34,900  Descending Oakland Center
Sat 01:07:06 PM 37.6447 -124.7667 116° Southeast 539 620 35,000  Climbing Oakland Center
Sat 01:08:07 PM 37.5794 -124.5972 116° Southeast 540 621 34,900  Descending Oakland Center
Sat 01:09:09 PM 37.5136 -124.4286 116° Southeast 539 620 35,000 49 Climbing Oakland Center
Sat 01:10:10 PM 37.4469 -124.2614 117° Southeast 538 619 35,000 -49 Level Oakland Center
Sat 01:11:11 PM 37.3814 -124.0933 116° Southeast 538 619 34,900  Descending Oakland Center
Sat 01:12:12 PM 37.3122 -123.9242 117° Southeast 543 625 35,000 49 Climbing Oakland Center
Sat 01:13:13 PM 37.2317 -123.7219 117° Southeast 542 624 35,000  Level Oakland Center
Sat 01:14:14 PM 37.1656 -123.5561 117° Southeast 536 617 35,000  Level Oakland Center
Sat 01:15:16 PM 37.0983 -123.3906 117° Southeast 537 618 35,000 -49 Level Oakland Center
Sat 01:16:17 PM 37.0317 -123.2247 117° Southeast 537 618 34,900 -49 Descending Oakland Center
Sat 01:17:18 PM 36.9642 -123.0578 117° Southeast 539 620 34,900 49 Level Oakland Center
Sat 01:18:19 PM 36.8958 -122.8911 117° Southeast 540 621 35,000  Climbing Oakland Center
Sat 01:19:20 PM 36.8281 -122.7300 118° Southeast 535 616 34,900 -49 Descending Oakland Center
Sat 01:20:21 PM 36.7608 -122.5658 117° Southeast 533 613 34,900 49 Level Oakland Center
Sat 01:21:22 PM 36.6922 -122.4003 117° Southeast 539 620 35,000  Climbing Oakland Center
Sat 01:22:23 PM 36.6106 -122.2042 117° Southeast 536 617 34,900  Descending Oakland Center
Sat 01:23:24 PM 36.5414 -122.0433 118° Southeast 531 611 35,000  Climbing Oakland Center
Sat 01:24:25 PM 36.4719 -121.8806 118° Southeast 531 611 34,900 -49 Descending Oakland Center
Sat 01:25:26 PM 36.4011 -121.7119 118° Southeast 532 612 34,900 49 Level Oakland Center
Sat 01:26:27 PM 36.3333 -121.5503 117° Southeast 531 611 35,000 49 Climbing Oakland Center
Sat 01:27:28 PM 36.2578 -121.3947 121° Southeast 531 611 35,000  Level Oakland Center
Sat 01:28:29 PM 36.1764 -121.2433 124° Southeast 530 610 35,000  Level Oakland Center
Sat 01:29:31 PM 36.0922 -121.0939 125° Southeast 532 612 35,000  Level Oakland Center
Sat 01:30:32 PM 36.0086 -120.9453 125° Southeast 527 606 35,000 -49 Level Oakland Center
Sat 01:31:33 PM 35.9256 -120.7964 125° Southeast 530 610 34,900 -49 Descending Oakland Center
Sat 01:32:34 PM 35.8417 -120.6506 125° Southeast 522 601 34,900 49 Level Oakland Center
Sat 01:33:35 PM 35.7583 -120.5042 125° Southeast 521 600 35,000  Climbing Oakland Center
Sat 01:34:36 PM 35.6733 -120.3569 125° Southeast 525 604 34,900 -49 Descending Oakland Center
Sat 01:35:37 PM 35.5811 -120.2156 129° Southeast 527 606 34,900 49 Level Oakland Center
Sat 01:36:38 PM 35.4733 -120.0925 137° Southeast 521 600 35,000  Climbing Oakland Center
Sat 01:37:39 PM 35.3642 -119.9733 138° Southeast 518 596 34,900 -279 Descending Oakland Center
Sat 01:38:04 PM 35.3219 -119.9275 138° Southeast 516 594 34,600 -2,207 Descending Los Angeles Center
Sat 01:39:06 PM 35.1942 -119.7867 138° Southeast 514 592 31,700 -2,226 Descending Los Angeles Center
Sat 01:40:08 PM 35.1100 -119.6936 138° Southeast 510 587 30,000 -2,016 Descending Los Angeles Center
Sat 01:41:11 PM 34.9861 -119.5575 138° Southeast 498 573 27,500 -2,352 Descending Los Angeles Center
Sat 01:42:13 PM 34.8856 -119.4489 138° Southeast 485 558 25,100 -2,177 Descending Los Angeles Center
Sat 01:43:15 PM 34.7869 -119.3422 138° Southeast 476 548 23,000 -1,742 Descending Los Angeles Center
Sat 01:44:17 PM 34.6903 -119.2392 139° Southeast 466 536 21,500 -1,742 Descending Los Angeles Center
Sat 01:45:19 PM 34.5836 -119.1261 139° Southeast 444 511 19,400 -1,790 Descending Los Angeles Center
Sat 01:46:21 PM 34.4953 -119.0278 137° Southeast 425 489 17,800 -1,645 Descending Los Angeles Center
Sat 01:47:23 PM 34.4086 -118.9347 138° Southeast 416 479 16,000 -1,790 Descending Los Angeles Center
Sat 01:48:25 PM 34.3133 -118.8644 149° Southeast 399 459 14,100 -1,742 Descending Los Angeles Center
Sat 01:49:27 PM 34.2117 -118.8281 164° South 381 438 12,400 -1,887 Descending Los Angeles Center
Sat 01:50:29 PM 34.0983 -118.7869 163° South 353 406 10,200 -1,161 Descending Los Angeles Center
Sat 01:51:31 PM 34.0347 -118.7178 138° Southeast 308 354 10,000 -97 Descending Los Angeles Center
Sat 01:52:33 PM 34.0264 -118.6281 96° East 271 312 10,000 -528 Level Los Angeles Center
Sat 01:53:36 PM 34.0186 -118.5400 96° East 264 304 8,900 -1,016 Descending Los Angeles Center
Sat 01:54:37 PM 34.0108 -118.4661 97° East 261 300 7,900 -968 Descending Los Angeles Center
Sat 01:55:40 PM 34.0192 -118.3803 83° East 242 278 6,900 -1,248 Descending Los Angeles Center
Sat 01:56:42 PM 34.0278 -118.2847 84° East 239 275 5,300 -968 Descending Los Angeles Center
Sat 01:57:44 PM 34.0328 -118.2114 85° East 225 259 4,900 -435 Descending Los Angeles Center
Sat 01:58:46 PM 34.0386 -118.1486 84° East 198 228 4,400 -520 Descending Los Angeles Center
Sat 01:59:51 PM 34.0167 -118.1000 119° Southeast 207 238 3,800 -480 Descending Southern California TRACON
Sat 02:00:51 PM 33.9833 -118.1333 220° Southwest 175 201 3,400 -600 Descending Southern California TRACON
Sat 02:01:51 PM 33.9667 -118.1833 248° West 178 205 2,600 -400 Descending Southern California TRACON
Sat 02:02:51 PM 33.9667 -118.2500 270° West 174 200 2,600  Level Southern California TRACON
Sat 02:03:07 PM 33.9678 -118.2569 281° West 173 199 2,600  Level Los Angeles Center

Login

Don't have an account? Register now (free) for customized features, flight alerts, and more!